• Join FlightAware (Why Join?)
  • Login
  • US Flag 
01:54AM EST


 

Airport Tracker/Info


-or-


 

Live Flight TrackerFlight Track Log ✈ SWA2166 ✈ 10-Apr-2013 ✈ KPVD - KMCO

Flight Track Log - Related Links

Times and Time Zones

All times are in EDT time to prevent confusion due to time zone crossing. See the SWA2166 flight status page for this flight to view local times or setup timezone preferences in your user account.

Time Position Orientation Groundspeed Altitude Reporting Facility
EDT Latitude Longitude Course Direction KTS MPH feet Rate Location/Type
03:15PM 41.7350 -71.4192 57° Northeast 177 204 700  Level Boston Center
03:15PM 41.7433 -71.4022 57° Northeast 178 205 1,500 2,612 Climbing Boston Center
03:16PM 41.7675 -71.3294 66° East 210 242 4,400 2,653 Climbing Boston Center
03:17PM 41.7858 -71.2736 66° East 269 310 5,700 1,768 Climbing Boston Center
03:18PM 41.7394 -71.2161 137° Southeast 323 372 7,200 2,182 Climbing Boston Center
03:19PM 41.6539 -71.2147 179° South 269 310 10,100 2,571 Climbing Boston Center
03:20PM 41.5664 -71.2219 184° South 319 367 12,300 2,951 Climbing Boston Center
03:21PM 41.4625 -71.2489 191° South 356 410 16,100 3,150 Climbing Boston Center
03:22PM 41.3967 -71.3414 227° Southwest 334 384 18,600 2,615 Climbing Boston Center
03:23PM 41.3292 -71.4533 231° Southwest 367 422 21,200 2,529 Climbing Boston Center
03:24PM 41.2569 -71.5619 229° Southwest 385 443 23,700 2,361 Climbing Boston Center
03:25PM 41.1806 -71.6678 226° Southwest 397 457 26,000 2,118 Climbing Boston Center
03:26PM 41.1003 -71.7872 228° Southwest 414 476 27,900 1,780 Climbing Boston Center
03:27PM 41.0194 -71.9064 228° Southwest 428 493 29,500 1,869 Climbing Boston Center
03:28PM 40.9347 -72.0361 229° Southwest 447 514 31,700 2,150 Climbing Boston Center
03:29PM 40.8558 -72.1547 229° Southwest 447 514 33,800 2,050 Climbing Boston Center
03:30PM 40.7747 -72.2756 228° Southwest 437 503 35,800 1,636 Climbing Boston Center
03:31PM 40.7019 -72.3744 226° Southwest 431 496 37,100 1,100 Climbing Boston Center
03:32PM 40.6247 -72.4919 229° Southwest 426 490 38,000 843 Climbing Boston Center
03:33PM 40.5414 -72.6122 228° Southwest 431 496 38,800 966 Climbing Boston Center
03:34PM 40.4600 -72.7292 228° Southwest 431 496 39,900 605 Climbing Boston Center
03:35PM 40.3742 -72.8486 227° Southwest 441 507 40,000 50 Climbing Boston Center
03:36PM 40.2964 -72.9678 229° Southwest 441 507 40,000  Level Boston Center
03:38PM 40.1314 -73.2092 228° Southwest 450 518 40,000  Level Washington Center
03:39PM 40.0461 -73.3178 224° Southwest 445 512 40,000  Level Washington Center
03:40PM 39.9542 -73.4181 220° Southwest 440 506 40,000  Level Washington Center
03:41PM 39.8603 -73.5211 220° Southwest 440 506 40,000  Level Washington Center
03:42PM 39.7722 -73.6208 221° Southwest 435 501 40,000  Level Washington Center
03:43PM 39.6781 -73.7231 220° Southwest 435 501 40,000  Level Washington Center
03:44PM 39.5900 -73.8222 221° Southwest 435 501 40,000  Level Washington Center
03:45PM 39.5017 -73.9214 221° Southwest 430 495 40,000  Level Washington Center
03:46PM 39.4114 -74.0203 220° Southwest 430 495 40,000  Level Washington Center
03:47PM 39.3208 -74.1161 219° Southwest 430 495 40,000  Level Washington Center
03:48PM 39.2344 -74.2117 221° Southwest 424 488 40,000  Level Washington Center
03:49PM 39.1461 -74.3097 221° Southwest 424 488 40,000  Level Washington Center
03:50PM 39.0575 -74.4047 220° Southwest 424 488 40,000  Level Washington Center
03:51PM 38.9686 -74.5022 220° Southwest 424 488 40,000  Level Washington Center
03:52PM 38.8819 -74.5942 220° Southwest 424 488 40,000  Level Washington Center
03:53PM 38.7931 -74.6861 219° Southwest 424 488 40,000  Level Washington Center
03:54PM 38.7061 -74.7831 221° Southwest 424 488 40,000  Level Washington Center
03:55PM 38.6172 -74.8742 219° Southwest 424 488 40,000  Level Washington Center
03:56PM 38.5300 -74.9706 221° Southwest 424 488 40,000  Level Washington Center
03:57PM 38.4408 -75.0642 219° Southwest 424 488 40,000  Level Washington Center
03:58PM 38.3494 -75.1603 220° Southwest 430 495 40,000  Level Washington Center
03:59PM 38.2581 -75.2506 218° Southwest 425 489 40,000  Level Washington Center
04:00PM 38.1625 -75.3331 214° Southwest 425 489 40,000  Level Washington Center
04:01PM 38.0625 -75.4097 211° Southwest 425 489 40,000  Level Washington Center
04:02PM 37.9644 -75.4942 214° Southwest 425 489 40,000  Level Washington Center
04:03PM 37.8667 -75.5786 214° Southwest 425 489 40,000  Level Washington Center
04:04PM 37.7664 -75.6600 213° Southwest 425 489 40,000  Level Washington Center
04:05PM 37.6664 -75.7386 212° Southwest 431 496 40,000  Level Washington Center
04:06PM 37.5639 -75.8250 214° Southwest 439 505 40,000  Level Washington Center
04:07PM 37.4636 -75.9083 213° Southwest 439 505 40,000  Level Washington Center
04:08PM 37.3653 -75.9864 212° Southwest 434 499 40,000  Level Washington Center
04:09PM 37.2650 -76.0694 213° Southwest 434 499 40,000  Level Washington Center
04:10PM 37.1644 -76.1522 213° Southwest 434 499 40,000  Level Washington Center
04:11PM 37.0597 -76.2269 210° Southwest 439 505 40,000  Level Washington Center
04:12PM 36.9592 -76.3092 213° Southwest 439 505 40,000  Level Washington Center
04:13PM 36.8586 -76.3889 212° Southwest 434 499 40,000  Level Washington Center
04:14PM 36.7578 -76.4708 213° Southwest 434 499 40,000  Level Washington Center
04:15PM 36.6569 -76.5550 214° Southwest 434 499 40,000  Level Washington Center
04:16PM 36.5564 -76.6367 213° Southwest 439 505 40,000  Level Washington Center
04:17PM 36.4533 -76.7153 212° Southwest 439 505 40,000  Level Washington Center
04:18PM 36.3525 -76.7964 213° Southwest 434 499 40,000  Level Washington Center
04:19PM 36.2514 -76.8722 211° Southwest 434 499 40,000  Level Washington Center
04:20PM 36.1503 -76.9528 213° Southwest 434 499 40,000  Level Washington Center
04:21PM 36.0575 -77.0436 218° Southwest 434 499 40,000  Level Washington Center
04:22PM 35.9667 -77.1344 219° Southwest 429 494 40,000  Level Washington Center
04:23PM 35.8778 -77.2225 219° Southwest 424 488 40,000  Level Washington Center
04:24PM 35.7911 -77.3128 220° Southwest 419 482 40,000  Level Washington Center
04:25PM 35.7022 -77.4003 219° Southwest 419 482 40,000  Level Washington Center
04:26PM 35.6089 -77.4878 217° Southwest 419 482 40,000  Level Washington Center
04:27PM 35.5178 -77.5775 219° Southwest 424 488 40,000  Level Washington Center
04:28PM 35.4267 -77.6669 219° Southwest 424 488 40,000  Level Washington Center
04:29PM 35.3353 -77.7561 219° Southwest 424 488 40,000  Level Washington Center
04:30PM 35.2439 -77.8428 218° Southwest 424 488 40,000  Level Washington Center
04:31PM 35.1503 -77.9342 219° Southwest 430 495 40,000  Level Washington Center
04:32PM 35.0589 -78.0228 218° Southwest 430 495 40,000  Level Washington Center
04:33PM 34.9631 -78.1136 218° Southwest 430 495 40,000  Level Washington Center
04:34PM 34.8694 -78.1994 217° Southwest 430 495 40,000  Level Washington Center
04:36PM 34.7025 -78.3700 220° Southwest 429 494 40,000  Level Jacksonville Center
04:37PM 34.6011 -78.4558 215° Southwest 434 499 40,000  Level Jacksonville Center
04:38PM 34.5083 -78.5439 218° Southwest 440 506 40,000  Level Jacksonville Center
04:39PM 34.4097 -78.6469 221° Southwest 440 506 40,000 -50 Level Jacksonville Center
04:40PM 34.3144 -78.7344 217° Southwest 435 501 39,900 -600 Descending Jacksonville Center
04:41PM 34.2194 -78.8244 218° Southwest 430 495 38,800 -1,000 Descending Jacksonville Center
04:42PM 34.1261 -78.9117 218° Southwest 430 495 37,900 -400 Descending Jacksonville Center
04:43PM 34.0308 -78.9986 217° Southwest 435 501 38,000 50 Climbing Jacksonville Center
04:44PM 33.9356 -79.0906 219° Southwest 435 501 38,000  Level Jacksonville Center
04:45PM 33.8400 -79.1744 216° Southwest 435 501 38,000  Level Jacksonville Center
04:46PM 33.7425 -79.2661 218° Southwest 435 501 38,000  Level Jacksonville Center
04:47PM 33.6511 -79.3497 217° Southwest 430 495 38,000  Level Jacksonville Center
04:48PM 33.5533 -79.4383 217° Southwest 436 502 38,000  Level Jacksonville Center
04:49PM 33.4578 -79.5267 218° Southwest 436 502 38,000  Level Jacksonville Center
04:50PM 33.3597 -79.6150 217° Southwest 436 502 38,000  Level Jacksonville Center
04:51PM 33.2639 -79.7053 218° Southwest 441 507 38,000  Level Jacksonville Center
04:52PM 33.1681 -79.7908 217° Southwest 441 507 38,000  Level Jacksonville Center
04:53PM 33.0700 -79.8758 216° Southwest 441 507 38,000  Level Jacksonville Center
04:54PM 32.9842 -79.9556 218° Southwest 441 507 38,000  Level Jacksonville Center
04:55PM 32.8881 -80.0403 217° Southwest 441 507 38,000  Level Jacksonville Center
04:56PM 32.7833 -80.1178 212° Southwest 441 507 38,000  Level Jacksonville Center
04:57PM 32.6828 -80.1950 213° Southwest 441 507 38,000  Level Jacksonville Center
04:58PM 32.5797 -80.2694 211° Southwest 436 502 38,000  Level Jacksonville Center
04:59PM 32.4769 -80.3464 212° Southwest 436 502 38,000  Level Jacksonville Center
05:00PM 32.3783 -80.4181 212° Southwest 436 502 38,000  Level Jacksonville Center
05:01PM 32.2753 -80.4944 212° Southwest 436 502 38,000  Level Jacksonville Center
05:02PM 32.1703 -80.5683 211° Southwest 436 502 38,000  Level Jacksonville Center
05:03PM 32.0714 -80.6444 213° Southwest 430 495 38,000  Level Jacksonville Center
05:04PM 31.9558 -80.7231 210° Southwest 430 495 38,000  Level Jacksonville Center
05:05PM 31.8653 -80.7914 213° Southwest 436 502 38,000  Level Jacksonville Center
05:06PM 31.7517 -80.8744 212° Southwest 431 496 38,000  Level Jacksonville Center
05:07PM 31.6483 -80.9475 211° Southwest 431 496 38,000  Level Jacksonville Center
05:08PM 31.5575 -81.0128 211° Southwest 431 496 38,000  Level Jacksonville Center
05:09PM 31.4353 -81.0664 201° Southwest 424 488 38,000  Level Jacksonville Center
05:10PM 31.3119 -81.0711 182° South 444 511 38,000  Level Jacksonville Center
05:11PM 31.1847 -81.0736 181° South 449 517 38,000 -400 Level Jacksonville Center
05:12PM 31.0575 -81.0761 181° South 460 529 37,200 -900 Descending Jacksonville Center
05:13PM 30.9342 -81.0786 181° South 455 524 36,200 -1,000 Descending Jacksonville Center
05:14PM 30.8069 -81.0833 182° South 460 529 35,200 -950 Descending Jacksonville Center
05:15PM 30.6797 -81.0858 181° South 460 529 34,300 -600 Descending Jacksonville Center
05:16PM 30.5503 -81.0883 181° South 460 529 34,000 -150 Descending Jacksonville Center
05:17PM 30.4228 -81.0906 181° South 460 529 34,000  Level Jacksonville Center
05:18PM 30.2936 -81.0931 181° South 460 529 34,000  Level Jacksonville Center
05:19PM 30.1642 -81.0956 181° South 460 529 34,000 -1,300 Level Jacksonville Center
05:20PM 30.0367 -81.1003 182° South 460 529 31,400 -2,500 Descending Jacksonville Center
05:21PM 29.9158 -81.1000 180° South 455 524 29,000 -2,350 Descending Jacksonville Center
05:22PM 29.7967 -81.1047 182° South 445 512 26,700 -2,250 Descending Jacksonville Center
05:23PM 29.6800 -81.1092 182° South 433 498 24,500 -2,133 Descending Jacksonville Center
05:25PM 29.4650 -81.1133 181° South 403 464 20,300 -1,933 Descending Jacksonville Center
05:26PM 29.3753 -81.1125 180° South 373 429 18,700 -1,850 Descending Jacksonville Center
05:27PM 29.2769 -81.1094 178° South 367 422 16,600 -2,050 Descending Jacksonville Center
05:28PM 29.1767 -81.1017 176° South 362 417 14,600 -2,050 Descending Jacksonville Center
05:29PM 29.0808 -81.0986 178° South 357 411 12,500 -1,300 Descending Jacksonville Center
05:30PM 28.9928 -81.0883 174° South 342 394 12,000 -900 Descending Jacksonville Center
05:31PM 28.9133 -81.0756 172° South 315 362 10,700 -1,500 Descending Jacksonville Center
05:32PM 28.8339 -81.0628 172° South 299 344 9,000 -1,550 Descending Jacksonville Center
05:33PM 28.7611 -81.0736 187° South 293 337 7,600 -1,250 Descending Jacksonville Center
05:34PM 28.7331 -81.1569 249° West 244 281 6,500 -1,300 Descending Jacksonville Center
05:35PM 28.7025 -81.2214 242° Southwest 234 269 5,000 -1,525 Descending Jacksonville Center
05:36PM 28.6667 -81.2833 237° Southwest 229 264 3,500 -1,017 Descending Orlando TRACON
05:37PM 28.6167 -81.3000 196° South 220 253 3,000 -550 Descending Orlando TRACON
05:38PM 28.5667 -81.3000 180° South 209 241 2,400 -762 Descending Orlando TRACON
05:39PM 28.5000 -81.3000 180° South 158 182 1,400 -810 Descending Orlando TRACON
05:40PM 28.4667 -81.3000 180° South 131 151 700 -700 Descending Orlando TRACON
05:42PM 28.4294 -81.3090 180° South  Level Estimated
05:49PM 28.4294 -81.3090 180° South  Level Estimated
05:50PM 28.4294 -81.3090 180° South  Level Estimated
05:51PM 28.4294 -81.3090 180° South  Level Estimated